sensor_id;sensor_type;location;lat;lon;timestamp;temperature;humidity
21635;DHT22;10979;48.306;9.830;2023-02-01T00:01:26;2.20;99.90
21635;DHT22;10979;48.306;9.830;2023-02-01T00:03:52;2.20;99.90
21635;DHT22;10979;48.306;9.830;2023-02-01T00:06:17;2.20;99.90
21635;DHT22;10979;48.306;9.830;2023-02-01T00:08:43;2.10;99.90
21635;DHT22;10979;48.306;9.830;2023-02-01T00:11:11;2.10;99.90
21635;DHT22;10979;48.306;9.830;2023-02-01T00:13:39;2.10;99.90
21635;DHT22;10979;48.306;9.830;2023-02-01T00:16:14;2.10;99.90
21635;DHT22;10979;48.306;9.830;2023-02-01T00:18:44;2.10;99.90
21635;DHT22;10979;48.306;9.830;2023-02-01T00:21:11;2.10;99.90
21635;DHT22;10979;48.306;9.830;2023-02-01T00:23:37;2.10;99.90
21635;DHT22;10979;48.306;9.830;2023-02-01T00:26:04;2.00;99.90
21635;DHT22;10979;48.306;9.830;2023-02-01T00:28:30;2.00;99.90
21635;DHT22;10979;48.306;9.830;2023-02-01T00:31:00;2.00;99.90
21635;DHT22;10979;48.306;9.830;2023-02-01T00:33:27;2.00;99.90
21635;DHT22;10979;48.306;9.830;2023-02-01T00:35:57;2.00;99.90
21635;DHT22;10979;48.306;9.830;2023-02-01T00:38:24;1.90;99.90
21635;DHT22;10979;48.306;9.830;2023-02-01T00:40:49;2.00;99.90
21635;DHT22;10979;48.306;9.830;2023-02-01T00:43:15;1.90;99.90
21635;DHT22;10979;48.306;9.830;2023-02-01T00:45:40;1.90;99.90
21635;DHT22;10979;48.306;9.830;2023-02-01T00:48:06;1.80;99.90
21635;DHT22;10979;48.306;9.830;2023-02-01T00:50:31;1.80;99.90
21635;DHT22;10979;48.306;9.830;2023-02-01T00:52:57;1.70;99.90
21635;DHT22;10979;48.306;9.830;2023-02-01T00:55:22;1.60;99.90
21635;DHT22;10979;48.306;9.830;2023-02-01T00:57:48;1.60;99.90
21635;DHT22;10979;48.306;9.830;2023-02-01T01:00:14;1.40;99.90
21635;DHT22;10979;48.306;9.830;2023-02-01T01:02:41;1.30;99.90
21635;DHT22;10979;48.306;9.830;2023-02-01T01:05:07;1.40;99.90
21635;DHT22;10979;48.306;9.830;2023-02-01T01:07:32;1.50;99.90
21635;DHT22;10979;48.306;9.830;2023-02-01T01:09:58;1.50;99.90
21635;DHT22;10979;48.306;9.830;2023-02-01T01:12:23;1.40;99.90
21635;DHT22;10979;48.306;9.830;2023-02-01T01:14:49;1.50;99.90
21635;DHT22;10979;48.306;9.830;2023-02-01T01:17:15;1.60;99.90
21635;DHT22;10979;48.306;9.830;2023-02-01T01:19:40;1.60;99.90
21635;DHT22;10979;48.306;9.830;2023-02-01T01:22:06;1.60;99.90
21635;DHT22;10979;48.306;9.830;2023-02-01T01:24:31;1.60;99.90
21635;DHT22;10979;48.306;9.830;2023-02-01T01:27:00;1.50;99.90
21635;DHT22;10979;48.306;9.830;2023-02-01T01:29:25;1.50;99.90
21635;DHT22;10979;48.306;9.830;2023-02-01T01:31:51;1.50;99.90
21635;DHT22;10979;48.306;9.830;2023-02-01T01:34:16;1.50;99.90
21635;DHT22;10979;48.306;9.830;2023-02-01T01:36:42;1.50;99.90
21635;DHT22;10979;48.306;9.830;2023-02-01T01:39:07;1.40;99.90
21635;DHT22;10979;48.306;9.830;2023-02-01T01:41:33;1.40;99.90
21635;DHT22;10979;48.306;9.830;2023-02-01T01:44:04;1.40;99.90
21635;DHT22;10979;48.306;9.830;2023-02-01T01:46:37;1.40;99.90
21635;DHT22;10979;48.306;9.830;2023-02-01T01:49:10;1.40;99.90
21635;DHT22;10979;48.306;9.830;2023-02-01T01:51:54;1.50;99.90
21635;DHT22;10979;48.306;9.830;2023-02-01T01:54:25;1.60;99.90
21635;DHT22;10979;48.306;9.830;2023-02-01T01:56:57;1.50;99.90
21635;DHT22;10979;48.306;9.830;2023-02-01T01:59:24;1.50;99.90
21635;DHT22;10979;48.306;9.830;2023-02-01T02:01:51;1.50;99.90
21635;DHT22;10979;48.306;9.830;2023-02-01T02:04:17;1.40;99.90
21635;DHT22;10979;48.306;9.830;2023-02-01T02:06:51;1.40;99.90
21635;DHT22;10979;48.306;9.830;2023-02-01T02:09:21;1.40;99.90
21635;DHT22;10979;48.306;9.830;2023-02-01T02:11:46;1.40;99.90
21635;DHT22;10979;48.306;9.830;2023-02-01T02:14:13;1.40;99.90
21635;DHT22;10979;48.306;9.830;2023-02-01T02:23:22;1.30;99.90
21635;DHT22;10979;48.306;9.830;2023-02-01T02:30:41;1.40;99.90
21635;DHT22;10979;48.306;9.830;2023-02-01T02:39:06;1.40;99.90
21635;DHT22;10979;48.306;9.830;2023-02-01T02:50:37;1.50;99.90
21635;DHT22;10979;48.306;9.830;2023-02-01T02:53:32;1.50;99.90
21635;DHT22;10979;48.306;9.830;2023-02-01T02:56:20;1.60;99.90
21635;DHT22;10979;48.306;9.830;2023-02-01T02:59:06;1.50;99.90
21635;DHT22;10979;48.306;9.830;2023-02-01T03:01:51;1.60;99.90
21635;DHT22;10979;48.306;9.830;2023-02-01T03:04:36;1.60;99.90
21635;DHT22;10979;48.306;9.830;2023-02-01T03:07:50;1.60;99.90
21635;DHT22;10979;48.306;9.830;2023-02-01T03:18:48;1.70;99.90
21635;DHT22;10979;48.306;9.830;2023-02-01T03:21:15;1.70;99.90
21635;DHT22;10979;48.306;9.830;2023-02-01T03:23:41;1.70;99.90
21635;DHT22;10979;48.306;9.830;2023-02-01T03:26:11;1.70;99.90
21635;DHT22;10979;48.306;9.830;2023-02-01T03:28:43;1.80;99.90
21635;DHT22;10979;48.306;9.830;2023-02-01T03:31:10;1.80;99.90
21635;DHT22;10979;48.306;9.830;2023-02-01T03:33:36;1.80;99.90
21635;DHT22;10979;48.306;9.830;2023-02-01T03:36:26;1.80;99.90
21635;DHT22;10979;48.306;9.830;2023-02-01T03:41:41;1.80;99.90
21635;DHT22;10979;48.306;9.830;2023-02-01T03:44:23;1.80;99.90
21635;DHT22;10979;48.306;9.830;2023-02-01T03:46:54;1.80;99.90
21635;DHT22;10979;48.306;9.830;2023-02-01T03:52:00;1.80;99.90
21635;DHT22;10979;48.306;9.830;2023-02-01T03:54:28;1.80;99.90
21635;DHT22;10979;48.306;9.830;2023-02-01T03:56:56;1.80;99.90
21635;DHT22;10979;48.306;9.830;2023-02-01T03:59:23;1.80;99.90
21635;DHT22;10979;48.306;9.830;2023-02-01T04:01:49;1.80;99.90
21635;DHT22;10979;48.306;9.830;2023-02-01T04:04:15;1.90;99.90
21635;DHT22;10979;48.306;9.830;2023-02-01T04:06:49;1.90;99.90
21635;DHT22;10979;48.306;9.830;2023-02-01T04:09:15;1.90;99.90
21635;DHT22;10979;48.306;9.830;2023-02-01T04:11:41;1.90;99.90
21635;DHT22;10979;48.306;9.830;2023-02-01T04:14:06;1.90;99.90
21635;DHT22;10979;48.306;9.830;2023-02-01T04:16:32;1.90;99.90
21635;DHT22;10979;48.306;9.830;2023-02-01T04:18:58;1.90;99.90
21635;DHT22;10979;48.306;9.830;2023-02-01T04:21:27;1.90;99.90
21635;DHT22;10979;48.306;9.830;2023-02-01T04:23:54;1.90;99.90
21635;DHT22;10979;48.306;9.830;2023-02-01T04:26:20;1.90;99.90
21635;DHT22;10979;48.306;9.830;2023-02-01T04:28:46;1.90;99.90
21635;DHT22;10979;48.306;9.830;2023-02-01T04:31:16;1.90;99.90
21635;DHT22;10979;48.306;9.830;2023-02-01T04:33:43;1.90;99.90
21635;DHT22;10979;48.306;9.830;2023-02-01T04:36:08;1.90;99.90
21635;DHT22;10979;48.306;9.830;2023-02-01T04:38:34;1.80;99.90
21635;DHT22;10979;48.306;9.830;2023-02-01T04:41:00;1.80;99.90
21635;DHT22;10979;48.306;9.830;2023-02-01T04:43:26;1.70;99.90
21635;DHT22;10979;48.306;9.830;2023-02-01T04:45:51;1.70;99.90
21635;DHT22;10979;48.306;9.830;2023-02-01T04:48:18;1.80;99.90
21635;DHT22;10979;48.306;9.830;2023-02-01T04:50:45;1.80;99.90
21635;DHT22;10979;48.306;9.830;2023-02-01T04:53:16;1.70;99.90
21635;DHT22;10979;48.306;9.830;2023-02-01T04:55:42;1.70;99.90
21635;DHT22;10979;48.306;9.830;2023-02-01T04:58:08;1.70;99.90
21635;DHT22;10979;48.306;9.830;2023-02-01T05:00:34;1.70;99.90
21635;DHT22;10979;48.306;9.830;2023-02-01T05:03:00;1.80;99.90
21635;DHT22;10979;48.306;9.830;2023-02-01T05:05:27;1.70;99.90
21635;DHT22;10979;48.306;9.830;2023-02-01T05:07:52;1.70;99.90
21635;DHT22;10979;48.306;9.830;2023-02-01T05:10:18;1.70;99.90
21635;DHT22;10979;48.306;9.830;2023-02-01T05:12:44;1.70;99.90
21635;DHT22;10979;48.306;9.830;2023-02-01T05:15:29;1.70;99.90
21635;DHT22;10979;48.306;9.830;2023-02-01T05:17:55;1.70;99.90
21635;DHT22;10979;48.306;9.830;2023-02-01T05:20:20;1.80;99.90
21635;DHT22;10979;48.306;9.830;2023-02-01T05:22:46;1.80;99.90
21635;DHT22;10979;48.306;9.830;2023-02-01T05:25:11;1.80;99.90
21635;DHT22;10979;48.306;9.830;2023-02-01T05:27:37;1.80;99.90
21635;DHT22;10979;48.306;9.830;2023-02-01T05:30:04;1.80;99.90
21635;DHT22;10979;48.306;9.830;2023-02-01T05:32:30;1.90;99.90
21635;DHT22;10979;48.306;9.830;2023-02-01T05:34:55;1.80;99.90
21635;DHT22;10979;48.306;9.830;2023-02-01T05:37:21;1.80;99.90
21635;DHT22;10979;48.306;9.830;2023-02-01T05:39:46;1.80;99.90
21635;DHT22;10979;48.306;9.830;2023-02-01T05:42:12;1.80;99.90
21635;DHT22;10979;48.306;9.830;2023-02-01T05:44:37;1.80;99.90
21635;DHT22;10979;48.306;9.830;2023-02-01T05:47:03;1.80;99.90
21635;DHT22;10979;48.306;9.830;2023-02-01T05:49:29;1.90;99.90
21635;DHT22;10979;48.306;9.830;2023-02-01T05:51:54;1.90;99.90
21635;DHT22;10979;48.306;9.830;2023-02-01T05:54:20;1.90;99.90
21635;DHT22;10979;48.306;9.830;2023-02-01T05:56:45;1.90;99.90
21635;DHT22;10979;48.306;9.830;2023-02-01T05:59:11;1.90;99.90
21635;DHT22;10979;48.306;9.830;2023-02-01T06:01:37;1.90;99.90
21635;DHT22;10979;48.306;9.830;2023-02-01T06:04:02;1.90;99.90
21635;DHT22;10979;48.306;9.830;2023-02-01T06:06:28;1.90;99.90
21635;DHT22;10979;48.306;9.830;2023-02-01T06:08:53;1.90;99.90
21635;DHT22;10979;48.306;9.830;2023-02-01T06:11:19;1.90;99.90
21635;DHT22;10979;48.306;9.830;2023-02-01T06:13:44;1.90;99.90
21635;DHT22;10979;48.306;9.830;2023-02-01T06:16:10;1.90;99.90
21635;DHT22;10979;48.306;9.830;2023-02-01T06:18:36;2.00;99.90
21635;DHT22;10979;48.306;9.830;2023-02-01T06:21:01;2.00;99.90
21635;DHT22;10979;48.306;9.830;2023-02-01T06:23:28;2.00;99.90
21635;DHT22;10979;48.306;9.830;2023-02-01T06:26:02;2.00;99.90
21635;DHT22;10979;48.306;9.830;2023-02-01T06:28:30;2.00;99.90
21635;DHT22;10979;48.306;9.830;2023-02-01T06:30:56;2.00;99.90
21635;DHT22;10979;48.306;9.830;2023-02-01T06:33:26;2.00;99.90
21635;DHT22;10979;48.306;9.830;2023-02-01T06:35:58;2.00;99.90
21635;DHT22;10979;48.306;9.830;2023-02-01T06:38:25;2.00;99.90
21635;DHT22;10979;48.306;9.830;2023-02-01T06:40:55;2.00;99.90
21635;DHT22;10979;48.306;9.830;2023-02-01T06:43:24;2.10;99.90
21635;DHT22;10979;48.306;9.830;2023-02-01T06:45:51;2.10;99.90
21635;DHT22;10979;48.306;9.830;2023-02-01T06:48:17;2.10;99.90
21635;DHT22;10979;48.306;9.830;2023-02-01T06:50:43;2.10;99.90
21635;DHT22;10979;48.306;9.830;2023-02-01T06:53:09;2.10;99.90
21635;DHT22;10979;48.306;9.830;2023-02-01T06:55:35;2.10;99.90
21635;DHT22;10979;48.306;9.830;2023-02-01T06:58:00;2.10;99.90
21635;DHT22;10979;48.306;9.830;2023-02-01T07:00:28;2.10;99.90
21635;DHT22;10979;48.306;9.830;2023-02-01T07:02:54;2.10;99.90
21635;DHT22;10979;48.306;9.830;2023-02-01T07:05:20;2.10;99.90
21635;DHT22;10979;48.306;9.830;2023-02-01T07:07:46;2.20;99.90
21635;DHT22;10979;48.306;9.830;2023-02-01T07:10:12;2.20;99.90
21635;DHT22;10979;48.306;9.830;2023-02-01T07:12:37;2.20;99.90
21635;DHT22;10979;48.306;9.830;2023-02-01T07:15:04;2.30;99.90
21635;DHT22;10979;48.306;9.830;2023-02-01T07:17:29;2.30;99.90
21635;DHT22;10979;48.306;9.830;2023-02-01T07:19:56;2.30;99.90
21635;DHT22;10979;48.306;9.830;2023-02-01T07:22:22;2.30;99.90
21635;DHT22;10979;48.306;9.830;2023-02-01T07:24:47;2.40;99.90
21635;DHT22;10979;48.306;9.830;2023-02-01T07:27:13;2.40;99.90
21635;DHT22;10979;48.306;9.830;2023-02-01T07:29:38;2.40;99.90
21635;DHT22;10979;48.306;9.830;2023-02-01T07:32:04;2.40;99.90
21635;DHT22;10979;48.306;9.830;2023-02-01T07:34:30;2.40;99.90
21635;DHT22;10979;48.306;9.830;2023-02-01T07:36:59;2.50;99.90
21635;DHT22;10979;48.306;9.830;2023-02-01T07:39:24;2.50;99.90
21635;DHT22;10979;48.306;9.830;2023-02-01T07:41:53;2.60;99.90
21635;DHT22;10979;48.306;9.830;2023-02-01T07:44:19;2.60;99.90
21635;DHT22;10979;48.306;9.830;2023-02-01T07:46:48;2.60;99.90
21635;DHT22;10979;48.306;9.830;2023-02-01T07:49:13;2.70;99.90
21635;DHT22;10979;48.306;9.830;2023-02-01T07:51:39;2.70;99.90
21635;DHT22;10979;48.306;9.830;2023-02-01T07:54:04;2.80;99.90
21635;DHT22;10979;48.306;9.830;2023-02-01T07:56:30;2.80;99.90
21635;DHT22;10979;48.306;9.830;2023-02-01T07:58:55;2.80;99.90
21635;DHT22;10979;48.306;9.830;2023-02-01T08:01:24;2.80;99.90
21635;DHT22;10979;48.306;9.830;2023-02-01T08:03:52;2.90;99.90
21635;DHT22;10979;48.306;9.830;2023-02-01T08:06:19;2.90;99.90
21635;DHT22;10979;48.306;9.830;2023-02-01T08:08:46;2.90;99.90
21635;DHT22;10979;48.306;9.830;2023-02-01T08:11:13;3.00;99.90
21635;DHT22;10979;48.306;9.830;2023-02-01T08:13:39;2.90;99.90
21635;DHT22;10979;48.306;9.830;2023-02-01T08:16:07;2.90;99.90
21635;DHT22;10979;48.306;9.830;2023-02-01T08:18:34;3.00;99.90
21635;DHT22;10979;48.306;9.830;2023-02-01T08:21:13;3.00;99.90
21635;DHT22;10979;48.306;9.830;2023-02-01T08:23:40;3.10;99.90
21635;DHT22;10979;48.306;9.830;2023-02-01T08:28:44;3.30;99.90
21635;DHT22;10979;48.306;9.830;2023-02-01T08:31:13;3.30;99.90
21635;DHT22;10979;48.306;9.830;2023-02-01T08:33:40;3.30;99.90
21635;DHT22;10979;48.306;9.830;2023-02-01T08:36:08;3.40;99.90
21635;DHT22;10979;48.306;9.830;2023-02-01T08:38:38;3.40;99.90
21635;DHT22;10979;48.306;9.830;2023-02-01T08:41:09;3.40;99.90
21635;DHT22;10979;48.306;9.830;2023-02-01T08:43:35;3.40;99.90
21635;DHT22;10979;48.306;9.830;2023-02-01T08:46:01;3.40;99.90
21635;DHT22;10979;48.306;9.830;2023-02-01T08:48:26;3.30;99.90
21635;DHT22;10979;48.306;9.830;2023-02-01T08:50:52;3.30;99.90
21635;DHT22;10979;48.306;9.830;2023-02-01T08:53:17;3.40;99.90
21635;DHT22;10979;48.306;9.830;2023-02-01T08:55:46;3.30;99.90
21635;DHT22;10979;48.306;9.830;2023-02-01T08:58:12;3.30;99.90
21635;DHT22;10979;48.306;9.830;2023-02-01T09:00:39;3.30;99.90
21635;DHT22;10979;48.306;9.830;2023-02-01T09:03:05;3.30;99.90
21635;DHT22;10979;48.306;9.830;2023-02-01T09:05:30;3.30;99.90
21635;DHT22;10979;48.306;9.830;2023-02-01T09:07:56;3.30;99.90
21635;DHT22;10979;48.306;9.830;2023-02-01T09:10:22;3.40;99.90
21635;DHT22;10979;48.306;9.830;2023-02-01T09:12:47;3.40;99.90
21635;DHT22;10979;48.306;9.830;2023-02-01T09:15:13;3.50;99.90
21635;DHT22;10979;48.306;9.830;2023-02-01T09:17:38;3.40;99.90
21635;DHT22;10979;48.306;9.830;2023-02-01T09:20:07;3.40;99.90
21635;DHT22;10979;48.306;9.830;2023-02-01T09:22:33;3.50;99.90
21635;DHT22;10979;48.306;9.830;2023-02-01T09:24:59;3.50;99.90
21635;DHT22;10979;48.306;9.830;2023-02-01T09:27:24;3.50;99.90
21635;DHT22;10979;48.306;9.830;2023-02-01T09:29:50;3.50;99.90
21635;DHT22;10979;48.306;9.830;2023-02-01T09:32:21;3.50;99.90
21635;DHT22;10979;48.306;9.830;2023-02-01T09:34:47;3.60;99.90
21635;DHT22;10979;48.306;9.830;2023-02-01T09:37:13;3.60;99.90
21635;DHT22;10979;48.306;9.830;2023-02-01T09:39:38;3.80;99.90
21635;DHT22;10979;48.306;9.830;2023-02-01T09:47:29;3.60;99.90
21635;DHT22;10979;48.306;9.830;2023-02-01T09:50:33;3.60;99.90
21635;DHT22;10979;48.306;9.830;2023-02-01T09:53:01;3.60;99.90
21635;DHT22;10979;48.306;9.830;2023-02-01T09:55:40;3.50;99.90
21635;DHT22;10979;48.306;9.830;2023-02-01T09:58:31;3.50;99.90
21635;DHT22;10979;48.306;9.830;2023-02-01T10:00:59;3.50;99.90
21635;DHT22;10979;48.306;9.830;2023-02-01T10:03:34;3.50;99.90
21635;DHT22;10979;48.306;9.830;2023-02-01T10:06:25;3.60;99.90
21635;DHT22;10979;48.306;9.830;2023-02-01T10:11:25;3.50;99.90
21635;DHT22;10979;48.306;9.830;2023-02-01T10:14:11;3.50;99.90
21635;DHT22;10979;48.306;9.830;2023-02-01T10:19:53;3.80;99.90
21635;DHT22;10979;48.306;9.830;2023-02-01T10:25:08;3.90;99.90
21635;DHT22;10979;48.306;9.830;2023-02-01T10:27:37;4.00;99.90
21635;DHT22;10979;48.306;9.830;2023-02-01T10:32:48;4.10;99.90
21635;DHT22;10979;48.306;9.830;2023-02-01T10:35:17;4.10;99.90
21635;DHT22;10979;48.306;9.830;2023-02-01T10:37:44;4.20;99.90
21635;DHT22;10979;48.306;9.830;2023-02-01T10:40:24;4.20;99.90
21635;DHT22;10979;48.306;9.830;2023-02-01T10:43:01;4.20;99.90
21635;DHT22;10979;48.306;9.830;2023-02-01T10:45:29;4.10;99.90
21635;DHT22;10979;48.306;9.830;2023-02-01T10:47:57;4.10;99.90
21635;DHT22;10979;48.306;9.830;2023-02-01T10:53:59;4.10;99.90
21635;DHT22;10979;48.306;9.830;2023-02-01T10:56:27;4.10;99.90
21635;DHT22;10979;48.306;9.830;2023-02-01T10:59:01;4.00;99.90
21635;DHT22;10979;48.306;9.830;2023-02-01T11:01:34;4.10;99.90
21635;DHT22;10979;48.306;9.830;2023-02-01T11:04:02;4.20;99.90
21635;DHT22;10979;48.306;9.830;2023-02-01T11:06:46;4.50;99.90
21635;DHT22;10979;48.306;9.830;2023-02-01T11:09:19;4.60;99.90
21635;DHT22;10979;48.306;9.830;2023-02-01T11:14:17;4.50;99.90
21635;DHT22;10979;48.306;9.830;2023-02-01T11:16:48;4.50;99.90
21635;DHT22;10979;48.306;9.830;2023-02-01T11:19:16;4.60;99.90
21635;DHT22;10979;48.306;9.830;2023-02-01T11:21:43;4.70;99.90
21635;DHT22;10979;48.306;9.830;2023-02-01T11:24:31;4.60;99.90
21635;DHT22;10979;48.306;9.830;2023-02-01T11:27:00;4.60;99.90
21635;DHT22;10979;48.306;9.830;2023-02-01T11:29:37;4.70;99.90
21635;DHT22;10979;48.306;9.830;2023-02-01T11:32:03;4.60;99.90
21635;DHT22;10979;48.306;9.830;2023-02-01T11:34:42;4.60;99.90
21635;DHT22;10979;48.306;9.830;2023-02-01T11:37:38;4.70;99.90
21635;DHT22;10979;48.306;9.830;2023-02-01T11:42:58;5.60;99.90
21635;DHT22;10979;48.306;9.830;2023-02-01T11:45:29;5.40;99.90
21635;DHT22;10979;48.306;9.830;2023-02-01T11:47:57;5.30;99.90
21635;DHT22;10979;48.306;9.830;2023-02-01T11:50:39;5.30;99.90
21635;DHT22;10979;48.306;9.830;2023-02-01T11:55:55;5.20;99.90
21635;DHT22;10979;48.306;9.830;2023-02-01T12:07:26;4.60;99.90
21635;DHT22;10979;48.306;9.830;2023-02-01T12:10:24;4.50;99.90
21635;DHT22;10979;48.306;9.830;2023-02-01T12:21:23;4.90;99.90
21635;DHT22;10979;48.306;9.830;2023-02-01T12:32:23;4.80;99.90
21635;DHT22;10979;48.306;9.830;2023-02-01T12:35:04;4.80;99.90
21635;DHT22;10979;48.306;9.830;2023-02-01T12:41:19;4.90;99.90
21635;DHT22;10979;48.306;9.830;2023-02-01T12:43:55;4.80;99.90
21635;DHT22;10979;48.306;9.830;2023-02-01T12:51:39;4.80;99.90
21635;DHT22;10979;48.306;9.830;2023-02-01T12:56:53;4.30;99.90
21635;DHT22;10979;48.306;9.830;2023-02-01T12:59:40;4.30;99.90
21635;DHT22;10979;48.306;9.830;2023-02-01T13:02:31;4.40;99.90
21635;DHT22;10979;48.306;9.830;2023-02-01T13:07:49;4.40;99.90
21635;DHT22;10979;48.306;9.830;2023-02-01T13:10:31;4.40;99.90
21635;DHT22;10979;48.306;9.830;2023-02-01T13:18:21;4.20;99.90
21635;DHT22;10979;48.306;9.830;2023-02-01T13:21:16;4.30;99.90
21635;DHT22;10979;48.306;9.830;2023-02-01T13:23:45;4.30;99.90
21635;DHT22;10979;48.306;9.830;2023-02-01T13:26:11;4.40;99.90
21635;DHT22;10979;48.306;9.830;2023-02-01T13:29:01;4.50;99.90
21635;DHT22;10979;48.306;9.830;2023-02-01T13:34:28;4.60;99.90
21635;DHT22;10979;48.306;9.830;2023-02-01T13:45:19;4.70;99.90
21635;DHT22;10979;48.306;9.830;2023-02-01T13:47:47;4.70;99.90
21635;DHT22;10979;48.306;9.830;2023-02-01T13:52:52;4.80;99.90
21635;DHT22;10979;48.306;9.830;2023-02-01T13:57:45;4.80;99.90
21635;DHT22;10979;48.306;9.830;2023-02-01T14:10:51;4.50;99.90
21635;DHT22;10979;48.306;9.830;2023-02-01T14:18:56;4.70;99.90
21635;DHT22;10979;48.306;9.830;2023-02-01T14:21:32;4.80;99.90
21635;DHT22;10979;48.306;9.830;2023-02-01T14:24:20;4.70;99.90
21635;DHT22;10979;48.306;9.830;2023-02-01T14:26:54;4.70;99.90
21635;DHT22;10979;48.306;9.830;2023-02-01T14:29:30;4.60;99.90
21635;DHT22;10979;48.306;9.830;2023-02-01T14:34:51;4.60;99.90
21635;DHT22;10979;48.306;9.830;2023-02-01T14:39:52;4.40;99.90
21635;DHT22;10979;48.306;9.830;2023-02-01T14:44:50;4.40;99.90
21635;DHT22;10979;48.306;9.830;2023-02-01T14:55:58;4.40;99.90
21635;DHT22;10979;48.306;9.830;2023-02-01T15:00:56;4.30;99.90
21635;DHT22;10979;48.306;9.830;2023-02-01T15:03:33;4.20;99.90
21635;DHT22;10979;48.306;9.830;2023-02-01T15:06:00;4.10;99.90
21635;DHT22;10979;48.306;9.830;2023-02-01T15:08:33;4.00;99.90
21635;DHT22;10979;48.306;9.830;2023-02-01T15:11:04;4.00;99.90
21635;DHT22;10979;48.306;9.830;2023-02-01T15:13:32;4.00;99.90
21635;DHT22;10979;48.306;9.830;2023-02-01T15:16:13;4.00;99.90
21635;DHT22;10979;48.306;9.830;2023-02-01T15:18:40;4.00;99.90
21635;DHT22;10979;48.306;9.830;2023-02-01T15:21:14;4.00;99.90
21635;DHT22;10979;48.306;9.830;2023-02-01T15:23:40;4.00;99.90
21635;DHT22;10979;48.306;9.830;2023-02-01T15:26:06;4.00;99.90
21635;DHT22;10979;48.306;9.830;2023-02-01T15:28:31;4.00;99.90
21635;DHT22;10979;48.306;9.830;2023-02-01T15:31:00;3.90;99.90
21635;DHT22;10979;48.306;9.830;2023-02-01T15:33:27;3.90;99.90
21635;DHT22;10979;48.306;9.830;2023-02-01T15:36:08;3.90;99.90
21635;DHT22;10979;48.306;9.830;2023-02-01T15:38:39;3.80;99.90
21635;DHT22;10979;48.306;9.830;2023-02-01T15:41:23;3.80;99.90
21635;DHT22;10979;48.306;9.830;2023-02-01T15:46:36;3.80;99.90
21635;DHT22;10979;48.306;9.830;2023-02-01T15:49:04;3.80;99.90
21635;DHT22;10979;48.306;9.830;2023-02-01T15:51:31;3.80;99.90
21635;DHT22;10979;48.306;9.830;2023-02-01T15:54:02;3.80;99.90
21635;DHT22;10979;48.306;9.830;2023-02-01T15:56:33;3.80;99.90
21635;DHT22;10979;48.306;9.830;2023-02-01T15:59:02;3.80;99.90
21635;DHT22;10979;48.306;9.830;2023-02-01T16:01:28;3.80;99.90
21635;DHT22;10979;48.306;9.830;2023-02-01T16:06:53;3.80;99.90
21635;DHT22;10979;48.306;9.830;2023-02-01T16:09:22;3.70;99.90
21635;DHT22;10979;48.306;9.830;2023-02-01T16:11:58;3.70;99.90
21635;DHT22;10979;48.306;9.830;2023-02-01T16:14:24;3.70;99.90
21635;DHT22;10979;48.306;9.830;2023-02-01T16:16:51;3.70;99.90
21635;DHT22;10979;48.306;9.830;2023-02-01T16:19:17;3.70;99.90
21635;DHT22;10979;48.306;9.830;2023-02-01T16:21:43;3.70;99.90
21635;DHT22;10979;48.306;9.830;2023-02-01T16:24:08;3.70;99.90
21635;DHT22;10979;48.306;9.830;2023-02-01T16:26:34;3.70;99.90
21635;DHT22;10979;48.306;9.830;2023-02-01T16:29:01;3.60;99.90
21635;DHT22;10979;48.306;9.830;2023-02-01T16:31:38;3.60;99.90
21635;DHT22;10979;48.306;9.830;2023-02-01T16:34:04;3.70;99.90
21635;DHT22;10979;48.306;9.830;2023-02-01T16:36:31;3.60;99.90
21635;DHT22;10979;48.306;9.830;2023-02-01T16:38:57;3.60;99.90
21635;DHT22;10979;48.306;9.830;2023-02-01T16:41:24;3.60;99.90
21635;DHT22;10979;48.306;9.830;2023-02-01T16:43:52;3.60;99.90
21635;DHT22;10979;48.306;9.830;2023-02-01T16:46:20;3.60;99.90
21635;DHT22;10979;48.306;9.830;2023-02-01T16:48:52;3.60;99.90
21635;DHT22;10979;48.306;9.830;2023-02-01T16:51:19;3.60;99.90
21635;DHT22;10979;48.306;9.830;2023-02-01T16:53:45;3.60;99.90
21635;DHT22;10979;48.306;9.830;2023-02-01T16:56:19;3.50;99.90
21635;DHT22;10979;48.306;9.830;2023-02-01T16:58:46;3.60;99.90
21635;DHT22;10979;48.306;9.830;2023-02-01T17:01:13;3.50;99.90
21635;DHT22;10979;48.306;9.830;2023-02-01T17:03:39;3.60;99.90
21635;DHT22;10979;48.306;9.830;2023-02-01T17:06:06;3.60;99.90
21635;DHT22;10979;48.306;9.830;2023-02-01T17:08:35;3.80;99.90
21635;DHT22;10979;48.306;9.830;2023-02-01T17:11:02;3.90;99.90
21635;DHT22;10979;48.306;9.830;2023-02-01T17:13:28;3.80;99.90
21635;DHT22;10979;48.306;9.830;2023-02-01T17:16:00;3.80;99.90
21635;DHT22;10979;48.306;9.830;2023-02-01T17:18:31;3.90;99.90
21635;DHT22;10979;48.306;9.830;2023-02-01T17:20:58;3.90;99.90
21635;DHT22;10979;48.306;9.830;2023-02-01T17:23:24;3.80;99.90
21635;DHT22;10979;48.306;9.830;2023-02-01T17:25:50;3.70;99.90
21635;DHT22;10979;48.306;9.830;2023-02-01T17:28:16;3.70;99.90
21635;DHT22;10979;48.306;9.830;2023-02-01T17:30:42;3.60;99.90
21635;DHT22;10979;48.306;9.830;2023-02-01T17:35:45;3.60;99.90
21635;DHT22;10979;48.306;9.830;2023-02-01T17:38:13;3.60;99.90
21635;DHT22;10979;48.306;9.830;2023-02-01T17:40:38;3.50;99.90
21635;DHT22;10979;48.306;9.830;2023-02-01T17:43:04;3.50;99.90
21635;DHT22;10979;48.306;9.830;2023-02-01T17:45:39;3.50;99.90
21635;DHT22;10979;48.306;9.830;2023-02-01T17:48:07;3.50;99.90
21635;DHT22;10979;48.306;9.830;2023-02-01T17:50:36;3.50;99.90
21635;DHT22;10979;48.306;9.830;2023-02-01T17:53:03;3.50;99.90
21635;DHT22;10979;48.306;9.830;2023-02-01T17:55:33;3.50;99.90
21635;DHT22;10979;48.306;9.830;2023-02-01T17:57:59;3.50;99.90
21635;DHT22;10979;48.306;9.830;2023-02-01T18:00:25;3.50;99.90
21635;DHT22;10979;48.306;9.830;2023-02-01T18:02:51;3.50;99.90
21635;DHT22;10979;48.306;9.830;2023-02-01T18:05:21;3.50;99.90
21635;DHT22;10979;48.306;9.830;2023-02-01T18:07:47;3.50;99.90
21635;DHT22;10979;48.306;9.830;2023-02-01T18:10:13;3.50;99.90
21635;DHT22;10979;48.306;9.830;2023-02-01T18:12:39;3.50;99.90
21635;DHT22;10979;48.306;9.830;2023-02-01T18:15:24;3.50;99.90
21635;DHT22;10979;48.306;9.830;2023-02-01T18:17:50;3.50;99.90
21635;DHT22;10979;48.306;9.830;2023-02-01T18:20:19;3.50;99.90
21635;DHT22;10979;48.306;9.830;2023-02-01T18:22:46;3.40;99.90
21635;DHT22;10979;48.306;9.830;2023-02-01T18:25:22;3.40;99.90
21635;DHT22;10979;48.306;9.830;2023-02-01T18:27:49;3.40;99.90
21635;DHT22;10979;48.306;9.830;2023-02-01T18:30:17;3.40;99.90
21635;DHT22;10979;48.306;9.830;2023-02-01T18:32:43;3.40;99.90
21635;DHT22;10979;48.306;9.830;2023-02-01T18:35:29;3.50;99.90
21635;DHT22;10979;48.306;9.830;2023-02-01T18:37:56;3.40;99.90
21635;DHT22;10979;48.306;9.830;2023-02-01T18:40:24;3.40;99.90
21635;DHT22;10979;48.306;9.830;2023-02-01T18:42:50;3.40;99.90
21635;DHT22;10979;48.306;9.830;2023-02-01T18:47:50;3.40;99.90
21635;DHT22;10979;48.306;9.830;2023-02-01T18:50:17;3.40;99.90
21635;DHT22;10979;48.306;9.830;2023-02-01T18:52:43;3.40;99.90
21635;DHT22;10979;48.306;9.830;2023-02-01T18:55:09;3.40;99.90
21635;DHT22;10979;48.306;9.830;2023-02-01T18:57:35;3.40;99.90